createdAt,value
2018-11-25T00:00:19.455Z,5.53
2018-11-25T00:01:19.450Z,5.57
2018-11-25T00:02:19.443Z,5.57
2018-11-25T00:03:19.438Z,5.64
2018-11-25T00:04:19.437Z,5.63
2018-11-25T00:05:19.426Z,5.50
2018-11-25T00:06:19.421Z,5.50
2018-11-25T00:07:19.415Z,5.56
2018-11-25T00:08:19.409Z,5.57
2018-11-25T00:09:19.403Z,5.63
2018-11-25T00:10:19.397Z,5.59
2018-11-25T00:11:19.397Z,5.52
2018-11-25T00:12:19.388Z,5.52
2018-11-25T00:13:19.382Z,5.55
2018-11-25T00:14:19.375Z,5.53
2018-11-25T00:15:19.370Z,5.49
2018-11-25T00:16:19.365Z,5.43
2018-11-25T00:17:19.369Z,5.46
2018-11-25T00:18:19.354Z,5.50
2018-11-25T00:19:19.356Z,5.48
2018-11-25T00:20:19.350Z,5.52
2018-11-25T00:21:19.335Z,5.56
2018-11-25T00:22:19.329Z,5.53
2018-11-25T00:23:19.325Z,5.60
2018-11-25T00:24:19.319Z,5.56
2018-11-25T00:25:19.320Z,5.59
2018-11-25T00:26:19.307Z,5.66
2018-11-25T00:27:19.300Z,5.71
2018-11-25T00:28:19.296Z,5.60
2018-11-25T00:29:19.293Z,5.71
2018-11-25T00:30:19.284Z,5.66
2018-11-25T00:31:19.278Z,5.66
2018-11-25T00:32:19.272Z,5.63
2018-11-25T00:33:19.268Z,5.64
2018-11-25T00:34:19.264Z,5.71
2018-11-25T00:35:19.256Z,5.67
2018-11-25T00:36:19.271Z,5.66
2018-11-25T00:37:19.243Z,5.71
2018-11-25T00:38:19.237Z,5.66
2018-11-25T00:39:19.233Z,5.63
2018-11-25T00:40:19.226Z,5.70
2018-11-25T00:41:19.220Z,5.64
2018-11-25T00:42:19.217Z,5.63
2018-11-25T00:43:19.210Z,5.63
2018-11-25T00:44:19.205Z,5.53
2018-11-25T00:45:19.199Z,5.53
2018-11-25T00:46:19.194Z,5.66
2018-11-25T00:47:19.186Z,5.70
2018-11-25T00:48:19.181Z,5.64
2018-11-25T00:49:19.178Z,5.55
2018-11-25T00:50:19.169Z,5.57
2018-11-25T00:51:19.164Z,5.53
2018-11-25T00:52:19.159Z,5.49
2018-11-25T00:53:19.156Z,5.38
2018-11-25T00:54:19.147Z,5.34
2018-11-25T00:55:19.144Z,5.34
2018-11-25T00:56:19.137Z,5.30
2018-11-25T00:57:19.132Z,5.28
2018-11-25T00:58:19.126Z,5.25
2018-11-25T00:59:19.123Z,5.14
2018-11-25T01:00:19.116Z,5.22
2018-11-25T01:01:19.111Z,5.16
2018-11-25T01:02:19.103Z,5.19
2018-11-25T01:03:19.098Z,5.13
2018-11-25T01:04:19.091Z,5.13
2018-11-25T01:05:19.132Z,5.13
2018-11-25T01:06:19.082Z,5.05
2018-11-25T01:07:19.074Z,4.98
2018-11-25T01:08:19.069Z,4.98
2018-11-25T01:09:19.063Z,4.86
2018-11-25T01:10:19.056Z,4.86
2018-11-25T01:11:19.054Z,4.77
2018-11-25T01:12:19.048Z,4.72
2018-11-25T01:13:19.038Z,4.75
2018-11-25T01:14:19.036Z,4.75
2018-11-25T01:15:19.029Z,4.67
2018-11-25T01:16:19.023Z,4.84
2018-11-25T01:17:19.017Z,4.83
2018-11-25T01:18:19.010Z,4.83
2018-11-25T01:19:19.009Z,4.77
2018-11-25T01:20:18.998Z,4.80
2018-11-25T01:21:18.994Z,4.79
2018-11-25T01:22:18.988Z,4.67
2018-11-25T01:23:18.985Z,4.76
2018-11-25T01:24:18.980Z,4.80
2018-11-25T01:25:18.975Z,4.77
2018-11-25T01:26:18.966Z,4.83
2018-11-25T01:27:18.959Z,4.84
2018-11-25T01:28:18.952Z,4.91
2018-11-25T01:29:18.950Z,4.84
2018-11-25T01:30:18.943Z,4.86
2018-11-25T01:31:18.936Z,4.79
2018-11-25T01:32:18.930Z,4.79
2018-11-25T01:33:18.926Z,4.77
2018-11-25T01:34:18.918Z,4.75
2018-11-25T01:35:18.915Z,4.77
2018-11-25T01:36:18.906Z,4.84
2018-11-25T01:37:18.901Z,4.99
2018-11-25T01:38:18.896Z,5.13
2018-11-25T01:39:18.889Z,5.16
2018-11-25T01:40:18.893Z,5.19
2018-11-25T01:41:18.880Z,5.23
2018-11-25T01:42:18.875Z,5.25
2018-11-25T01:43:18.873Z,5.28
2018-11-25T01:44:18.859Z,5.31
2018-11-25T01:45:18.855Z,5.34
2018-11-25T01:46:18.850Z,5.49
2018-11-25T01:47:18.844Z,5.40
2018-11-25T01:48:18.839Z,5.59
2018-11-25T01:49:18.833Z,5.60
2018-11-25T01:50:18.825Z,5.66
2018-11-25T01:51:18.820Z,5.75
2018-11-25T01:52:18.812Z,5.73
2018-11-25T01:53:18.809Z,5.70
2018-11-25T01:54:18.805Z,5.81
2018-11-25T01:55:18.796Z,5.85
2018-11-25T01:56:18.790Z,5.74
2018-11-25T01:57:18.792Z,5.77
2018-11-25T01:58:18.780Z,5.95
2018-11-25T01:59:18.778Z,5.86
2018-11-25T02:00:18.770Z,5.93
2018-11-25T02:01:18.776Z,5.92
2018-11-25T02:02:18.757Z,5.88
2018-11-25T02:03:18.752Z,5.95
2018-11-25T02:04:18.748Z,5.93
2018-11-25T02:05:18.741Z,6.00
2018-11-25T02:06:18.734Z,5.92
2018-11-25T02:07:18.729Z,6.03
2018-11-25T02:08:18.722Z,6.06
2018-11-25T02:09:18.720Z,6.01
2018-11-25T02:10:18.709Z,6.09
2018-11-25T02:11:18.706Z,6.04
2018-11-25T02:12:18.707Z,6.11
2018-11-25T02:13:18.695Z,6.07
2018-11-25T02:14:18.689Z,6.21
2018-11-25T02:15:18.684Z,6.16
2018-11-25T02:16:18.682Z,6.19
2018-11-25T02:17:18.672Z,6.14
2018-11-25T02:18:18.664Z,6.35
2018-11-25T02:19:18.662Z,6.33
2018-11-25T02:20:18.655Z,6.14
2018-11-25T02:21:18.654Z,6.13
2018-11-25T02:22:18.645Z,6.18
2018-11-25T02:23:18.640Z,6.21
2018-11-25T02:24:18.635Z,6.21
2018-11-25T02:25:18.629Z,6.28
2018-11-25T02:26:18.621Z,6.36
2018-11-25T02:27:18.620Z,6.25
2018-11-25T02:28:18.617Z,6.19
2018-11-25T02:29:18.607Z,6.14
2018-11-25T02:30:18.628Z,6.21
2018-11-25T02:31:18.596Z,6.29
2018-11-25T02:32:18.593Z,6.28
2018-11-25T02:33:18.586Z,6.16
2018-11-25T02:34:18.579Z,6.11
2018-11-25T02:35:25.833Z,6.14
2018-11-25T02:37:12.014Z,6.33
2018-11-25T02:38:11.960Z,6.32
2018-11-25T02:40:05.388Z,6.30
2018-11-25T02:41:05.326Z,6.18
2018-11-25T02:42:58.195Z,6.21
2018-11-25T02:43:58.175Z,6.33
2018-11-25T02:45:51.665Z,6.14
2018-11-25T02:46:51.580Z,6.16
2018-11-25T02:48:44.442Z,6.28
2018-11-25T02:49:44.417Z,6.13
2018-11-25T02:51:37.867Z,6.18
2018-11-25T02:52:37.843Z,6.11
2018-11-25T02:53:37.849Z,6.09
2018-11-25T02:54:37.864Z,6.14
2018-11-25T02:55:37.831Z,6.10
2018-11-25T02:56:37.855Z,6.13
2018-11-25T02:57:37.819Z,6.14
2018-11-25T02:58:37.809Z,6.04
2018-11-25T02:59:37.804Z,6.10
2018-11-25T03:00:37.809Z,6.13
2018-11-25T03:01:37.795Z,6.11
2018-11-25T03:02:37.788Z,6.06
2018-11-25T03:03:37.786Z,6.04
2018-11-25T03:04:37.776Z,6.16
2018-11-25T03:05:37.777Z,6.11
2018-11-25T03:06:37.765Z,6.07
2018-11-25T03:07:37.762Z,6.10
2018-11-25T03:08:37.763Z,6.11
2018-11-25T03:09:37.752Z,6.10
2018-11-25T03:10:37.744Z,6.09
2018-11-25T03:11:37.763Z,6.07
2018-11-25T03:12:37.732Z,6.06
2018-11-25T03:13:37.727Z,6.04
2018-11-25T03:14:37.730Z,6.06
2018-11-25T03:15:37.716Z,6.04
2018-11-25T03:16:37.709Z,6.00
2018-11-25T03:17:37.703Z,6.03
2018-11-25T03:18:37.697Z,5.95
2018-11-25T03:19:37.693Z,5.96
2018-11-25T03:20:37.687Z,5.93
2018-11-25T03:21:37.681Z,5.88
2018-11-25T03:22:37.677Z,5.88
2018-11-25T03:23:37.675Z,5.91
2018-11-25T03:24:37.664Z,5.85
2018-11-25T03:25:37.658Z,5.83
2018-11-25T03:26:37.675Z,5.91
2018-11-25T03:27:37.650Z,5.92
2018-11-25T03:28:37.646Z,5.91
2018-11-25T03:29:37.639Z,5.85
2018-11-25T03:30:37.631Z,5.93
2018-11-25T03:31:37.628Z,5.86
2018-11-25T03:32:37.620Z,5.78
2018-11-25T03:33:37.617Z,5.85
2018-11-25T03:34:37.607Z,5.77
2018-11-25T03:35:37.604Z,5.73
2018-11-25T03:36:37.595Z,5.74
2018-11-25T03:37:37.591Z,5.75
2018-11-25T03:38:37.588Z,5.77
2018-11-25T03:39:37.578Z,5.77
2018-11-25T03:40:37.574Z,5.78
2018-11-25T03:41:37.567Z,5.74
2018-11-25T03:42:37.562Z,5.81
2018-11-25T03:43:37.558Z,5.70
2018-11-25T03:44:37.550Z,5.75
2018-11-25T03:45:37.549Z,5.74
2018-11-25T03:46:37.538Z,5.77
2018-11-25T03:47:37.536Z,5.83
2018-11-25T03:48:37.529Z,5.83
2018-11-25T03:49:37.520Z,5.78
2018-11-25T03:50:37.516Z,5.85
2018-11-25T03:51:37.510Z,5.78
2018-11-25T03:52:37.503Z,5.81
2018-11-25T03:53:37.499Z,5.75
2018-11-25T03:54:37.493Z,5.71
2018-11-25T03:55:37.486Z,5.75
2018-11-25T03:56:37.479Z,5.75
2018-11-25T03:57:37.476Z,5.73
2018-11-25T03:58:37.470Z,5.66
2018-11-25T03:59:37.462Z,5.73
2018-11-25T04:00:37.457Z,5.74
2018-11-25T04:01:37.451Z,5.75
2018-11-25T04:02:37.445Z,5.73
2018-11-25T04:03:37.440Z,5.74
2018-11-25T04:04:37.437Z,5.68
2018-11-25T04:05:37.427Z,5.66
2018-11-25T04:06:37.423Z,5.64
2018-11-25T04:07:37.415Z,5.53
2018-11-25T04:08:37.416Z,5.57
2018-11-25T04:09:37.407Z,5.48
2018-11-25T04:10:37.401Z,5.66
2018-11-25T04:11:37.393Z,5.52
2018-11-25T04:12:37.404Z,5.63
2018-11-25T04:13:37.382Z,5.57
2018-11-25T04:14:37.375Z,5.55
2018-11-25T04:15:37.370Z,5.55
2018-11-25T04:16:37.363Z,5.53
2018-11-25T04:17:37.357Z,5.59
2018-11-25T04:18:37.352Z,5.49
2018-11-25T04:19:37.345Z,5.48
2018-11-25T04:20:37.341Z,5.46
2018-11-25T04:21:37.336Z,5.43
2018-11-25T04:22:37.342Z,5.34
2018-11-25T04:23:37.324Z,5.27
2018-11-25T04:24:37.318Z,5.27
2018-11-25T04:25:37.310Z,5.16
2018-11-25T04:26:44.535Z,5.27
2018-11-25T04:28:30.216Z,5.25
2018-11-25T04:29:30.172Z,5.32
2018-11-25T04:31:23.595Z,5.14
2018-11-25T04:32:23.567Z,5.10
2018-11-25T04:34:16.456Z,5.04
2018-11-25T04:35:16.427Z,4.92
2018-11-25T04:37:09.311Z,4.84
2018-11-25T04:38:09.264Z,4.84
2018-11-25T04:40:02.756Z,4.80
2018-11-25T04:41:02.633Z,4.73
2018-11-25T04:42:02.627Z,4.61
2018-11-25T04:43:02.649Z,4.47
2018-11-25T04:44:02.730Z,4.52
2018-11-25T04:45:02.609Z,4.44
2018-11-25T04:46:02.603Z,4.44
2018-11-25T04:47:02.609Z,4.42
2018-11-25T04:48:02.602Z,4.43
2018-11-25T04:49:02.586Z,4.40
2018-11-25T04:50:02.581Z,4.47
2018-11-25T04:51:02.573Z,4.51
2018-11-25T04:52:02.567Z,4.47
2018-11-25T04:53:02.564Z,4.42
2018-11-25T04:54:02.555Z,4.37
2018-11-25T04:55:02.546Z,4.51
2018-11-25T04:56:02.545Z,4.43
2018-11-25T04:57:02.536Z,4.42
2018-11-25T04:58:02.533Z,4.46
2018-11-25T04:59:02.534Z,4.62
2018-11-25T05:00:02.523Z,4.57
2018-11-25T05:01:02.508Z,4.58
2018-11-25T05:02:02.501Z,4.54
2018-11-25T05:03:02.495Z,4.69
2018-11-25T05:04:02.489Z,4.67
2018-11-25T05:05:02.486Z,4.61
2018-11-25T05:06:02.476Z,4.50
2018-11-25T05:07:02.468Z,4.69
2018-11-25T05:08:02.463Z,4.59
2018-11-25T05:09:02.457Z,4.52
2018-11-25T05:10:02.459Z,4.59
2018-11-25T05:11:02.445Z,4.70
2018-11-25T05:12:02.437Z,4.67
2018-11-25T05:13:02.432Z,4.64
2018-11-25T05:14:02.424Z,4.69
2018-11-25T05:15:02.417Z,4.79
2018-11-25T05:16:02.418Z,4.76
2018-11-25T05:17:02.405Z,4.91
2018-11-25T05:18:02.416Z,4.91
2018-11-25T05:19:02.394Z,4.92
2018-11-25T05:20:09.582Z,4.99
2018-11-25T05:21:55.272Z,4.91
2018-11-25T05:22:55.249Z,4.94
2018-11-25T05:24:48.129Z,4.99
2018-11-25T05:25:48.101Z,4.99
2018-11-25T05:27:41.041Z,4.94
2018-11-25T05:28:40.960Z,5.05
2018-11-25T05:30:34.894Z,5.04
2018-11-25T05:31:34.812Z,4.95
2018-11-25T05:33:27.822Z,4.89
2018-11-25T05:34:27.666Z,4.84
2018-11-25T05:36:21.130Z,4.75
2018-11-25T05:37:21.096Z,4.79
2018-11-25T05:39:13.965Z,4.64
2018-11-25T05:40:13.948Z,4.58
2018-11-25T05:42:06.831Z,4.44
2018-11-25T05:43:06.814Z,4.44
2018-11-25T05:44:06.802Z,4.44
2018-11-25T05:45:06.814Z,4.40
2018-11-25T05:46:06.857Z,4.32
2018-11-25T05:47:06.781Z,4.21
2018-11-25T05:48:06.787Z,4.18
2018-11-25T05:49:06.783Z,4.25
2018-11-25T05:50:06.777Z,4.19
2018-11-25T05:51:06.755Z,4.04
2018-11-25T05:52:06.752Z,4.01
2018-11-25T05:53:06.748Z,4.01
2018-11-25T05:54:06.737Z,3.89
2018-11-25T05:55:06.730Z,3.90
2018-11-25T05:56:06.728Z,3.82
2018-11-25T05:57:06.714Z,3.72
2018-11-25T05:58:06.717Z,3.70
2018-11-25T05:59:06.710Z,3.70
2018-11-25T06:00:06.705Z,3.75
2018-11-25T06:01:06.692Z,3.71
2018-11-25T06:02:06.682Z,3.64
2018-11-25T06:03:06.687Z,3.62
2018-11-25T06:04:06.710Z,3.54
2018-11-25T06:05:06.752Z,3.58
2018-11-25T06:06:06.664Z,3.57
2018-11-25T06:07:06.657Z,3.57
2018-11-25T06:08:06.644Z,3.43
2018-11-25T06:09:06.636Z,3.46
2018-11-25T06:10:06.627Z,3.43
2018-11-25T06:11:06.622Z,3.42
2018-11-25T06:12:06.617Z,3.42
2018-11-25T06:13:06.608Z,3.53
2018-11-25T06:14:06.602Z,3.43
2018-11-25T06:15:06.594Z,3.40
2018-11-25T06:16:06.588Z,3.36
2018-11-25T06:17:06.593Z,3.36
2018-11-25T06:18:06.577Z,3.28
2018-11-25T06:19:06.570Z,3.30
2018-11-25T06:20:06.564Z,3.33
2018-11-25T06:21:06.556Z,3.20
2018-11-25T06:22:06.548Z,3.23
2018-11-25T06:23:06.540Z,3.28
2018-11-25T06:24:06.537Z,3.18
2018-11-25T06:25:06.525Z,3.16
2018-11-25T06:26:06.532Z,3.06
2018-11-25T06:27:06.516Z,3.06
2018-11-25T06:28:06.506Z,3.15
2018-11-25T06:29:06.505Z,3.10
2018-11-25T06:30:06.499Z,3.07
2018-11-25T06:31:06.485Z,3.05
2018-11-25T06:32:06.481Z,3.09
2018-11-25T06:33:06.470Z,3.20
2018-11-25T06:34:06.464Z,3.16
2018-11-25T06:35:06.459Z,3.21
2018-11-25T06:36:06.449Z,3.13
2018-11-25T06:37:06.443Z,3.24
2018-11-25T06:38:06.452Z,3.20
2018-11-25T06:39:06.448Z,3.13
2018-11-25T06:40:06.429Z,3.03
2018-11-25T06:41:06.425Z,3.16
2018-11-25T06:42:06.435Z,3.18
2018-11-25T06:43:06.398Z,3.12
2018-11-25T06:44:06.435Z,3.18
2018-11-25T06:45:06.386Z,3.15
2018-11-25T06:46:06.379Z,3.23
2018-11-25T06:47:06.388Z,3.24
2018-11-25T06:48:06.366Z,3.24
2018-11-25T06:49:06.360Z,3.18
2018-11-25T06:50:06.460Z,3.20
2018-11-25T06:51:13.516Z,3.23
2018-11-25T06:52:59.306Z,3.18
2018-11-25T06:53:59.202Z,3.24
2018-11-25T06:55:52.656Z,3.25
2018-11-25T06:56:52.574Z,3.25
2018-11-25T06:57:52.573Z,3.23
2018-11-25T06:58:52.564Z,3.23
2018-11-25T06:59:52.549Z,3.31
2018-11-25T07:00:52.546Z,3.23
2018-11-25T07:01:52.533Z,3.25
2018-11-25T07:02:52.527Z,3.20
2018-11-25T07:03:52.532Z,3.27
2018-11-25T07:04:52.516Z,3.27
2018-11-25T07:05:52.509Z,3.34
2018-11-25T07:06:52.499Z,3.31
2018-11-25T07:07:52.493Z,3.34
2018-11-25T07:08:52.485Z,3.36
2018-11-25T07:09:52.477Z,3.27
2018-11-25T07:10:52.474Z,3.42
2018-11-25T07:11:52.465Z,3.40
2018-11-25T07:12:52.460Z,3.60
2018-11-25T07:13:52.510Z,3.53
2018-11-25T07:14:52.442Z,3.58
2018-11-25T07:15:52.435Z,3.65
2018-11-25T07:16:52.428Z,3.64
2018-11-25T07:17:52.421Z,3.57
2018-11-25T07:18:52.413Z,3.57
2018-11-25T07:19:52.407Z,3.53
2018-11-25T07:20:52.405Z,3.62
2018-11-25T07:21:52.392Z,3.58
2018-11-25T07:22:52.394Z,3.62
2018-11-25T07:23:52.379Z,3.57
2018-11-25T07:24:52.373Z,3.57
2018-11-25T07:25:52.367Z,3.53
2018-11-25T07:26:52.359Z,3.53
2018-11-25T07:27:52.353Z,3.50
2018-11-25T07:28:52.346Z,3.64
2018-11-25T07:29:52.337Z,3.58
2018-11-25T07:30:52.338Z,3.67
2018-11-25T07:31:52.333Z,3.70
2018-11-25T07:32:52.317Z,3.61
2018-11-25T07:33:52.313Z,3.70
2018-11-25T07:34:52.308Z,3.67
2018-11-25T07:35:52.302Z,3.65
2018-11-25T07:36:52.291Z,3.70
2018-11-25T07:37:52.282Z,3.70
2018-11-25T07:38:52.276Z,3.76
2018-11-25T07:39:52.275Z,3.75
2018-11-25T07:40:52.262Z,3.76
2018-11-25T07:41:52.278Z,3.90
2018-11-25T07:42:52.249Z,3.86
2018-11-25T07:43:52.245Z,3.97
2018-11-25T07:44:52.238Z,4.03
2018-11-25T07:45:52.228Z,4.16
2018-11-25T07:46:52.235Z,4.08
2018-11-25T07:47:52.223Z,4.18
2018-11-25T07:48:52.226Z,4.26
2018-11-25T07:49:52.202Z,4.32
2018-11-25T07:50:52.231Z,4.39
2018-11-25T07:51:52.190Z,4.47
2018-11-25T07:52:52.198Z,4.55
2018-11-25T07:53:52.184Z,4.47
2018-11-25T07:54:52.171Z,4.50
2018-11-25T07:55:52.169Z,4.62
2018-11-25T07:56:52.158Z,4.65
2018-11-25T07:57:52.154Z,4.79
2018-11-25T07:58:52.145Z,4.76
2018-11-25T07:59:52.141Z,4.79
2018-11-25T08:00:52.135Z,4.91
2018-11-25T08:01:52.127Z,4.80
2018-11-25T08:02:52.132Z,4.73
2018-11-25T08:03:52.132Z,4.84
2018-11-25T08:04:52.111Z,4.89
2018-11-25T08:05:52.105Z,4.89
2018-11-25T08:06:52.097Z,4.94
2018-11-25T08:07:52.093Z,4.94
2018-11-25T08:08:52.086Z,5.05
2018-11-25T08:09:52.081Z,5.13
2018-11-25T08:10:52.075Z,5.09
2018-11-25T08:11:52.068Z,5.13
2018-11-25T08:12:52.080Z,5.22
2018-11-25T08:13:52.059Z,5.23
2018-11-25T08:14:52.052Z,5.27
2018-11-25T08:15:59.199Z,5.28
2018-11-25T08:17:45.441Z,5.32
2018-11-25T08:18:45.423Z,5.35
2018-11-25T08:20:38.283Z,5.49
2018-11-25T08:21:38.271Z,5.53
2018-11-25T08:23:31.154Z,5.70
2018-11-25T08:24:31.130Z,5.74
2018-11-25T08:26:24.021Z,5.70
2018-11-25T08:27:23.988Z,5.82
2018-11-25T08:29:17.376Z,5.91
2018-11-25T08:30:17.367Z,6.11
2018-11-25T08:32:10.258Z,7.01
2018-11-25T08:33:10.223Z,7.38
2018-11-25T08:34:11.785Z,7.60
2018-11-25T08:35:10.220Z,7.59
2018-11-25T08:36:10.216Z,7.32
2018-11-25T08:37:10.203Z,7.04
2018-11-25T08:38:10.214Z,6.80
2018-11-25T08:39:10.192Z,6.77
2018-11-25T08:40:10.203Z,6.83
2018-11-25T08:41:10.208Z,6.94
2018-11-25T08:42:10.182Z,7.27
2018-11-25T08:43:10.178Z,7.52
2018-11-25T08:44:10.173Z,7.79
2018-11-25T08:45:10.172Z,8.28
2018-11-25T08:46:10.169Z,8.11
2018-11-25T08:47:10.217Z,8.28
2018-11-25T08:48:10.182Z,8.83
2018-11-25T08:49:10.160Z,9.13
2018-11-25T08:50:10.159Z,9.46
2018-11-25T08:51:10.155Z,9.82
2018-11-25T08:52:10.153Z,9.94
2018-11-25T08:53:10.160Z,9.58
2018-11-25T08:54:10.155Z,10.07
2018-11-25T08:55:10.151Z,10.18
2018-11-25T08:56:10.151Z,10.58
2018-11-25T08:57:10.154Z,11.14
2018-11-25T08:58:10.157Z,11.43
2018-11-25T08:59:10.149Z,11.09
2018-11-25T09:00:10.165Z,10.77
2018-11-25T09:01:10.160Z,10.96
2018-11-25T09:02:10.155Z,11.19
2018-11-25T09:03:10.155Z,11.71
2018-11-25T09:04:10.159Z,11.61
2018-11-25T09:05:10.161Z,11.62
2018-11-25T09:06:10.161Z,11.44
2018-11-25T09:07:10.165Z,11.29
2018-11-25T09:08:10.174Z,11.39
2018-11-25T09:09:10.190Z,11.29
2018-11-25T09:10:10.175Z,11.13
2018-11-25T09:11:10.179Z,11.03
2018-11-25T09:12:10.180Z,10.73
2018-11-25T09:13:10.192Z,10.71
2018-11-25T09:14:10.188Z,10.88
2018-11-25T09:15:10.195Z,10.94
2018-11-25T09:16:10.195Z,10.47
2018-11-25T09:17:10.194Z,10.15
2018-11-25T09:18:10.198Z,9.71
2018-11-25T09:19:10.199Z,9.35
2018-11-25T09:20:10.204Z,9.02
2018-11-25T09:21:10.207Z,8.99
2018-11-25T09:22:10.210Z,8.94
2018-11-25T09:23:10.211Z,9.01
2018-11-25T09:24:10.208Z,9.12
2018-11-25T09:25:10.211Z,9.16
2018-11-25T09:26:10.213Z,9.09
2018-11-25T09:27:17.590Z,8.97
2018-11-25T09:29:03.664Z,9.10
2018-11-25T09:30:03.640Z,9.27
2018-11-25T09:31:56.529Z,9.67
2018-11-25T09:32:56.519Z,9.70
2018-11-25T09:34:49.398Z,11.31
2018-11-25T09:35:49.391Z,12.27
2018-11-25T09:37:42.290Z,12.34
2018-11-25T09:38:42.282Z,12.06
2018-11-25T09:40:35.206Z,11.64
2018-11-25T09:41:35.209Z,12.15
2018-11-25T09:43:28.134Z,11.53
2018-11-25T09:44:28.081Z,11.07
2018-11-25T09:45:28.101Z,10.71
2018-11-25T09:46:28.086Z,10.37
2018-11-25T09:47:28.091Z,10.00
2018-11-25T09:48:28.096Z,9.83
2018-11-25T09:49:28.105Z,9.85
2018-11-25T09:50:28.094Z,9.86
2018-11-25T09:51:28.124Z,9.68
2018-11-25T09:52:28.225Z,9.60
2018-11-25T09:53:28.109Z,9.57
2018-11-25T09:54:28.101Z,9.50
2018-11-25T09:55:28.109Z,9.50
2018-11-25T09:56:28.115Z,9.45
2018-11-25T09:57:28.112Z,9.39
2018-11-25T09:58:28.149Z,9.38
2018-11-25T10:00:21.733Z,9.30
2018-11-25T10:01:21.615Z,9.30
2018-11-25T10:03:14.506Z,9.28
2018-11-25T10:04:14.486Z,9.21
2018-11-25T10:06:08.164Z,9.15
2018-11-25T10:07:08.186Z,8.94
2018-11-25T10:09:01.721Z,8.94
2018-11-25T10:10:01.653Z,8.93
2018-11-25T10:11:54.569Z,8.94
2018-11-25T10:12:54.509Z,8.81
2018-11-25T10:14:48.048Z,8.86
2018-11-25T10:15:48.018Z,8.97
2018-11-25T10:17:41.464Z,8.68
2018-11-25T10:18:41.449Z,8.76
2018-11-25T10:20:34.352Z,8.63
2018-11-25T10:21:34.340Z,8.66
2018-11-25T10:23:29.283Z,8.69
2018-11-25T10:24:27.305Z,8.75
2018-11-25T10:25:27.300Z,8.75
2018-11-25T10:26:27.335Z,8.75
2018-11-25T10:27:27.218Z,8.75
2018-11-25T10:28:27.187Z,8.75
2018-11-25T10:29:27.194Z,8.76
2018-11-25T10:30:27.190Z,8.79
2018-11-25T10:31:27.231Z,8.72
2018-11-25T10:32:35.243Z,8.69
2018-11-25T10:34:20.157Z,8.69
2018-11-25T10:35:20.065Z,8.75
2018-11-25T10:37:12.937Z,8.68
2018-11-25T10:38:13.006Z,8.79
2018-11-25T10:40:06.452Z,8.66
2018-11-25T10:41:06.478Z,8.51
2018-11-25T10:42:06.372Z,8.22
2018-11-25T10:43:06.371Z,8.02
2018-11-25T10:44:06.556Z,7.97
2018-11-25T10:45:06.377Z,7.82
2018-11-25T10:46:06.414Z,7.72
2018-11-25T10:47:06.359Z,7.62
2018-11-25T10:48:06.359Z,7.62
2018-11-25T10:49:06.475Z,7.66
2018-11-25T10:50:06.360Z,7.59
2018-11-25T10:51:06.350Z,7.66
2018-11-25T10:52:06.349Z,7.53
2018-11-25T10:53:06.347Z,7.50
2018-11-25T10:54:06.344Z,7.35
2018-11-25T10:55:06.380Z,7.44
2018-11-25T10:56:06.340Z,7.38
2018-11-25T10:57:06.336Z,7.40
2018-11-25T10:58:06.345Z,7.49
2018-11-25T10:59:06.330Z,7.41
2018-11-25T11:00:06.332Z,7.41
2018-11-25T11:01:06.328Z,7.53
2018-11-25T11:02:06.322Z,7.50
2018-11-25T11:03:06.321Z,7.42
2018-11-25T11:04:06.315Z,7.58
2018-11-25T11:05:06.312Z,7.47
2018-11-25T11:06:06.308Z,7.59
2018-11-25T11:07:06.308Z,7.52
2018-11-25T11:08:06.307Z,7.52
2018-11-25T11:09:06.298Z,7.50
2018-11-25T11:10:06.296Z,7.52
2018-11-25T11:11:06.295Z,7.44
2018-11-25T11:12:06.289Z,7.53
2018-11-25T11:13:06.286Z,7.55
2018-11-25T11:14:06.285Z,7.47
2018-11-25T11:15:06.280Z,7.53
2018-11-25T11:16:06.277Z,7.58
2018-11-25T11:17:06.275Z,7.60
2018-11-25T11:18:06.269Z,7.60
2018-11-25T11:19:06.346Z,7.67
2018-11-25T11:20:06.269Z,7.72
2018-11-25T11:21:06.258Z,7.69
2018-11-25T11:22:06.254Z,7.75
2018-11-25T11:23:06.256Z,7.75
2018-11-25T11:24:06.249Z,7.74
2018-11-25T11:25:06.245Z,7.79
2018-11-25T11:26:07.015Z,7.75
2018-11-25T11:27:06.243Z,7.79
2018-11-25T11:28:06.235Z,7.72
2018-11-25T11:29:06.230Z,7.78
2018-11-25T11:30:06.236Z,7.84
2018-11-25T11:31:13.189Z,7.87
2018-11-25T11:32:06.219Z,7.89
2018-11-25T11:33:06.221Z,7.87
2018-11-25T11:34:06.214Z,7.97
2018-11-25T11:35:06.210Z,7.97
2018-11-25T11:36:06.222Z,7.93
2018-11-25T11:37:06.204Z,7.94
2018-11-25T11:38:06.204Z,7.96
2018-11-25T11:39:06.196Z,8.00
2018-11-25T11:40:06.211Z,7.92
2018-11-25T11:41:06.190Z,7.84
2018-11-25T11:42:06.187Z,7.81
2018-11-25T11:43:06.184Z,7.81
2018-11-25T11:44:06.182Z,7.77
2018-11-25T11:45:06.177Z,7.77
2018-11-25T11:46:06.175Z,7.78
2018-11-25T11:47:06.170Z,7.72
2018-11-25T11:48:06.168Z,7.77
2018-11-25T11:49:06.162Z,7.77
2018-11-25T11:50:06.167Z,7.79
2018-11-25T11:51:06.192Z,7.81
2018-11-25T11:52:06.163Z,7.81
2018-11-25T11:53:06.150Z,7.81
2018-11-25T11:54:06.144Z,7.82
2018-11-25T11:55:06.141Z,7.75
2018-11-25T11:56:06.139Z,7.78
2018-11-25T11:57:06.136Z,7.79
2018-11-25T11:58:08.841Z,7.71
2018-11-25T11:59:06.139Z,7.71
2018-11-25T12:00:06.136Z,7.78
2018-11-25T12:01:06.121Z,7.75
2018-11-25T12:02:06.122Z,7.72
2018-11-25T12:03:06.117Z,7.71
2018-11-25T12:04:06.116Z,7.74
2018-11-25T12:05:06.117Z,7.71
2018-11-25T12:06:06.108Z,7.77
2018-11-25T12:07:06.111Z,7.71
2018-11-25T12:08:06.217Z,7.60
2018-11-25T12:09:06.100Z,7.66
2018-11-25T12:10:06.089Z,7.66
2018-11-25T12:11:06.100Z,7.62
2018-11-25T12:12:06.092Z,7.60
2018-11-25T12:13:06.080Z,7.62
2018-11-25T12:14:06.075Z,7.67
2018-11-25T12:15:06.094Z,7.53
2018-11-25T12:16:06.078Z,7.53
2018-11-25T12:17:06.068Z,7.53
2018-11-25T12:18:06.090Z,7.52
2018-11-25T12:19:06.133Z,7.53
2018-11-25T12:20:06.125Z,7.55
2018-11-25T12:21:06.048Z,7.55
2018-11-25T12:22:06.058Z,7.53
2018-11-25T12:23:06.045Z,7.49
2018-11-25T12:24:06.181Z,7.53
2018-11-25T12:25:06.038Z,7.53
2018-11-25T12:26:06.031Z,7.55
2018-11-25T12:28:38.621Z,7.52
2018-11-25T12:29:38.991Z,7.56
2018-11-25T12:31:31.435Z,7.60
2018-11-25T12:32:31.369Z,7.63
2018-11-25T12:34:24.395Z,7.66
2018-11-25T12:35:24.406Z,7.62
2018-11-25T12:37:17.220Z,7.72
2018-11-25T12:38:17.150Z,7.69
2018-11-25T12:40:10.045Z,7.72
2018-11-25T12:41:10.596Z,7.66
2018-11-25T12:43:03.606Z,7.78
2018-11-25T12:44:03.623Z,7.72
2018-11-25T12:45:03.554Z,7.69
2018-11-25T12:46:03.567Z,7.82
2018-11-25T12:47:03.445Z,7.79
2018-11-25T12:48:03.440Z,7.87
2018-11-25T12:49:03.437Z,7.71
2018-11-25T12:50:03.443Z,7.81
2018-11-25T12:51:03.468Z,7.81
2018-11-25T12:52:03.432Z,7.79
2018-11-25T12:53:03.505Z,7.89
2018-11-25T12:54:03.420Z,7.85
2018-11-25T12:55:03.427Z,7.87
2018-11-25T12:56:03.472Z,7.87
2018-11-25T12:57:03.407Z,7.87
2018-11-25T12:58:03.400Z,7.93
2018-11-25T12:59:03.400Z,7.97
2018-11-25T13:00:03.393Z,8.07
2018-11-25T13:01:03.394Z,8.00
2018-11-25T13:02:03.393Z,8.14
2018-11-25T13:03:03.386Z,8.08
2018-11-25T13:04:03.384Z,8.17
2018-11-25T13:05:03.377Z,8.18
2018-11-25T13:06:03.378Z,8.17
2018-11-25T13:07:03.375Z,8.17
2018-11-25T13:08:03.366Z,8.18
2018-11-25T13:09:03.364Z,8.12
2018-11-25T13:10:03.361Z,8.08
2018-11-25T13:11:03.381Z,8.11
2018-11-25T13:12:03.351Z,8.14
2018-11-25T13:13:03.350Z,8.15
2018-11-25T13:14:03.346Z,7.96
2018-11-25T13:15:03.342Z,8.12
2018-11-25T13:16:03.338Z,8.00
2018-11-25T13:17:03.334Z,7.99
2018-11-25T13:18:03.333Z,8.02
2018-11-25T13:19:03.327Z,7.96
2018-11-25T13:20:03.321Z,8.00
2018-11-25T13:21:03.319Z,7.97
2018-11-25T13:22:03.314Z,7.94
2018-11-25T13:23:03.313Z,7.89
2018-11-25T13:24:03.372Z,8.00
2018-11-25T13:25:03.308Z,7.93
2018-11-25T13:26:03.301Z,7.85
2018-11-25T13:27:03.297Z,7.94
2018-11-25T13:28:03.293Z,7.85
2018-11-25T13:29:03.289Z,7.85
2018-11-25T13:30:03.286Z,7.89
2018-11-25T13:31:03.289Z,7.77
2018-11-25T13:32:03.288Z,7.81
2018-11-25T13:33:03.276Z,7.78
2018-11-25T13:34:03.273Z,7.81
2018-11-25T13:35:03.272Z,7.79
2018-11-25T13:36:03.287Z,7.72
2018-11-25T13:37:03.262Z,7.67
2018-11-25T13:38:03.269Z,7.66
2018-11-25T13:39:03.252Z,7.74
2018-11-25T13:40:03.248Z,7.72
2018-11-25T13:41:03.273Z,7.69
2018-11-25T13:42:03.243Z,7.67
2018-11-25T13:43:03.236Z,7.71
2018-11-25T13:44:03.233Z,7.77
2018-11-25T13:45:03.232Z,7.69
2018-11-25T13:46:03.230Z,7.67
2018-11-25T13:47:03.235Z,7.52
2018-11-25T13:48:03.219Z,7.60
2018-11-25T13:49:03.288Z,7.58
2018-11-25T13:50:03.224Z,7.52
2018-11-25T13:51:03.204Z,7.55
2018-11-25T13:52:03.201Z,7.52
2018-11-25T13:53:03.199Z,7.50
2018-11-25T13:54:03.194Z,7.52
2018-11-25T13:55:03.193Z,7.47
2018-11-25T13:56:03.191Z,7.45
2018-11-25T13:57:03.181Z,7.45
2018-11-25T13:58:03.180Z,7.37
2018-11-25T13:59:03.175Z,7.38
2018-11-25T14:00:03.189Z,7.38
2018-11-25T14:01:03.170Z,7.41
2018-11-25T14:02:03.161Z,7.42
2018-11-25T14:03:03.160Z,7.44